sensor_id;sensor_type;location;lat;lon;timestamp;P1;durP1;ratioP1;P2;durP2;ratioP2
56752;SDS011;42627;42.646;23.642;2023-06-14T00:00:35;15.43;;;7.15;;
56752;SDS011;42627;42.646;23.642;2023-06-14T00:06:48;17.50;;;7.35;;
56752;SDS011;42627;42.646;23.642;2023-06-14T00:08:50;15.77;;;7.22;;
56752;SDS011;42627;42.646;23.642;2023-06-14T00:10:51;18.52;;;7.22;;
56752;SDS011;42627;42.646;23.642;2023-06-14T00:15:52;23.05;;;8.27;;
56752;SDS011;42627;42.646;23.642;2023-06-14T00:18:00;20.10;;;8.45;;
56752;SDS011;42627;42.646;23.642;2023-06-14T00:20:02;12.77;;;6.70;;
56752;SDS011;42627;42.646;23.642;2023-06-14T00:32:18;17.15;;;7.40;;
56752;SDS011;42627;42.646;23.642;2023-06-14T00:34:19;16.45;;;7.95;;
56752;SDS011;42627;42.646;23.642;2023-06-14T00:36:20;20.23;;;8.18;;
56752;SDS011;42627;42.646;23.642;2023-06-14T00:38:21;16.65;;;7.47;;
56752;SDS011;42627;42.646;23.642;2023-06-14T00:40:22;18.00;;;8.07;;
56752;SDS011;42627;42.646;23.642;2023-06-14T00:42:24;18.08;;;7.75;;
56752;SDS011;42627;42.646;23.642;2023-06-14T00:46:36;18.63;;;7.88;;
56752;SDS011;42627;42.646;23.642;2023-06-14T00:48:37;18.63;;;8.45;;
56752;SDS011;42627;42.646;23.642;2023-06-14T00:50:39;18.83;;;7.88;;
56752;SDS011;42627;42.646;23.642;2023-06-14T00:52:41;19.85;;;9.10;;
56752;SDS011;42627;42.646;23.642;2023-06-14T00:57:27;20.00;;;7.78;;
56752;SDS011;42627;42.646;23.642;2023-06-14T00:59:48;21.70;;;7.88;;
56752;SDS011;42627;42.646;23.642;2023-06-14T01:01:49;21.20;;;8.20;;
56752;SDS011;42627;42.646;23.642;2023-06-14T01:03:50;21.42;;;8.77;;
56752;SDS011;42627;42.646;23.642;2023-06-14T01:05:53;19.98;;;8.38;;
56752;SDS011;42627;42.646;23.642;2023-06-14T01:08:11;21.33;;;8.32;;
56752;SDS011;42627;42.646;23.642;2023-06-14T01:12:46;23.85;;;8.57;;
56752;SDS011;42627;42.646;23.642;2023-06-14T01:14:48;20.65;;;8.88;;
56752;SDS011;42627;42.646;23.642;2023-06-14T01:16:51;26.23;;;9.02;;
56752;SDS011;42627;42.646;23.642;2023-06-14T01:18:53;24.42;;;9.52;;
56752;SDS011;42627;42.646;23.642;2023-06-14T01:20:56;20.52;;;8.73;;
56752;SDS011;42627;42.646;23.642;2023-06-14T01:22:57;21.42;;;9.70;;
56752;SDS011;42627;42.646;23.642;2023-06-14T01:24:59;22.58;;;8.70;;
56752;SDS011;42627;42.646;23.642;2023-06-14T01:27:00;21.17;;;9.82;;
56752;SDS011;42627;42.646;23.642;2023-06-14T01:31:33;20.25;;;8.75;;
56752;SDS011;42627;42.646;23.642;2023-06-14T01:33:59;22.95;;;9.57;;
56752;SDS011;42627;42.646;23.642;2023-06-14T01:36:00;19.85;;;8.65;;
56752;SDS011;42627;42.646;23.642;2023-06-14T01:38:02;22.38;;;10.45;;
56752;SDS011;42627;42.646;23.642;2023-06-14T01:40:04;23.00;;;9.10;;
56752;SDS011;42627;42.646;23.642;2023-06-14T01:42:06;25.02;;;11.00;;
56752;SDS011;42627;42.646;23.642;2023-06-14T01:44:07;23.77;;;9.10;;
56752;SDS011;42627;42.646;23.642;2023-06-14T01:46:09;22.92;;;10.23;;
56752;SDS011;42627;42.646;23.642;2023-06-14T01:50:21;25.67;;;9.50;;
56752;SDS011;42627;42.646;23.642;2023-06-14T01:52:22;19.52;;;9.35;;
56752;SDS011;42627;42.646;23.642;2023-06-14T01:54:24;24.35;;;9.05;;
56752;SDS011;42627;42.646;23.642;2023-06-14T01:56:25;26.20;;;10.73;;
56752;SDS011;42627;42.646;23.642;2023-06-14T02:01:10;25.38;;;11.40;;
56752;SDS011;42627;42.646;23.642;2023-06-14T02:03:28;27.20;;;9.85;;
56752;SDS011;42627;42.646;23.642;2023-06-14T02:05:30;26.63;;;12.43;;
56752;SDS011;42627;42.646;23.642;2023-06-14T02:07:32;24.05;;;10.65;;
56752;SDS011;42627;42.646;23.642;2023-06-14T02:09:33;31.67;;;10.55;;
56752;SDS011;42627;42.646;23.642;2023-06-14T02:11:35;28.60;;;11.50;;
56752;SDS011;42627;42.646;23.642;2023-06-14T02:13:36;29.30;;;11.60;;
56752;SDS011;42627;42.646;23.642;2023-06-14T02:15:37;30.95;;;11.75;;
56752;SDS011;42627;42.646;23.642;2023-06-14T02:17:44;28.48;;;12.40;;
56752;SDS011;42627;42.646;23.642;2023-06-14T02:19:45;31.00;;;12.82;;
56752;SDS011;42627;42.646;23.642;2023-06-14T02:21:46;31.23;;;11.60;;
56752;SDS011;42627;42.646;23.642;2023-06-14T02:23:47;31.63;;;12.98;;
56752;SDS011;42627;42.646;23.642;2023-06-14T02:25:48;29.92;;;11.52;;
56752;SDS011;42627;42.646;23.642;2023-06-14T02:27:59;29.10;;;12.18;;
56752;SDS011;42627;42.646;23.642;2023-06-14T02:30:16;25.55;;;11.10;;
56752;SDS011;42627;42.646;23.642;2023-06-14T02:32:29;23.25;;;10.50;;
56752;SDS011;42627;42.646;23.642;2023-06-14T02:34:31;22.35;;;9.45;;
56752;SDS011;42627;42.646;23.642;2023-06-14T02:36:32;25.80;;;10.23;;
56752;SDS011;42627;42.646;23.642;2023-06-14T02:38:33;21.95;;;8.82;;
56752;SDS011;42627;42.646;23.642;2023-06-14T02:40:34;21.65;;;8.98;;
56752;SDS011;42627;42.646;23.642;2023-06-14T02:42:36;23.40;;;9.50;;
56752;SDS011;42627;42.646;23.642;2023-06-14T02:44:37;18.33;;;8.73;;
56752;SDS011;42627;42.646;23.642;2023-06-14T02:46:38;27.33;;;10.60;;
56752;SDS011;42627;42.646;23.642;2023-06-14T02:48:42;19.30;;;8.07;;
56752;SDS011;42627;42.646;23.642;2023-06-14T02:50:43;12.60;;;6.13;;
56752;SDS011;42627;42.646;23.642;2023-06-14T02:52:44;12.45;;;6.53;;
56752;SDS011;42627;42.646;23.642;2023-06-14T02:54:45;13.70;;;6.93;;
56752;SDS011;42627;42.646;23.642;2023-06-14T02:56:47;15.65;;;6.32;;
56752;SDS011;42627;42.646;23.642;2023-06-14T02:59:03;15.20;;;6.60;;
56752;SDS011;42627;42.646;23.642;2023-06-14T03:01:16;12.30;;;6.13;;
56752;SDS011;42627;42.646;23.642;2023-06-14T03:03:23;13.95;;;6.63;;
56752;SDS011;42627;42.646;23.642;2023-06-14T03:05:24;14.05;;;6.35;;
56752;SDS011;42627;42.646;23.642;2023-06-14T03:07:28;10.95;;;5.20;;
56752;SDS011;42627;42.646;23.642;2023-06-14T03:09:29;11.68;;;6.07;;
56752;SDS011;42627;42.646;23.642;2023-06-14T03:11:31;11.27;;;5.40;;
56752;SDS011;42627;42.646;23.642;2023-06-14T03:13:32;13.02;;;5.93;;
56752;SDS011;42627;42.646;23.642;2023-06-14T03:15:33;13.30;;;5.50;;
56752;SDS011;42627;42.646;23.642;2023-06-14T03:17:40;13.00;;;5.97;;
56752;SDS011;42627;42.646;23.642;2023-06-14T03:19:45;12.43;;;6.22;;
56752;SDS011;42627;42.646;23.642;2023-06-14T03:21:46;15.90;;;6.25;;
56752;SDS011;42627;42.646;23.642;2023-06-14T03:23:47;10.75;;;5.60;;
56752;SDS011;42627;42.646;23.642;2023-06-14T03:25:48;12.55;;;5.60;;
56752;SDS011;42627;42.646;23.642;2023-06-14T03:30:27;13.38;;;5.53;;
56752;SDS011;42627;42.646;23.642;2023-06-14T03:32:31;8.57;;;4.50;;
56752;SDS011;42627;42.646;23.642;2023-06-14T03:34:33;9.13;;;4.30;;
56752;SDS011;42627;42.646;23.642;2023-06-14T03:36:34;11.38;;;4.78;;
56752;SDS011;42627;42.646;23.642;2023-06-14T03:38:37;10.50;;;4.32;;
56752;SDS011;42627;42.646;23.642;2023-06-14T03:40:38;12.57;;;5.18;;
56752;SDS011;42627;42.646;23.642;2023-06-14T03:42:40;9.73;;;4.05;;
56752;SDS011;42627;42.646;23.642;2023-06-14T03:44:41;9.25;;;4.40;;
56752;SDS011;42627;42.646;23.642;2023-06-14T03:46:50;9.57;;;5.00;;
56752;SDS011;42627;42.646;23.642;2023-06-14T03:48:51;8.20;;;4.13;;
56752;SDS011;42627;42.646;23.642;2023-06-14T03:50:52;8.43;;;3.70;;
56752;SDS011;42627;42.646;23.642;2023-06-14T03:52:54;9.50;;;4.72;;
56752;SDS011;42627;42.646;23.642;2023-06-14T03:54:55;6.50;;;3.67;;
56752;SDS011;42627;42.646;23.642;2023-06-14T03:57:09;8.85;;;4.35;;
56752;SDS011;42627;42.646;23.642;2023-06-14T03:59:40;8.45;;;4.03;;
56752;SDS011;42627;42.646;23.642;2023-06-14T04:01:44;7.50;;;4.10;;
56752;SDS011;42627;42.646;23.642;2023-06-14T04:03:46;9.57;;;3.80;;
56752;SDS011;42627;42.646;23.642;2023-06-14T04:05:47;6.82;;;3.65;;
56752;SDS011;42627;42.646;23.642;2023-06-14T04:07:49;7.63;;;3.70;;
56752;SDS011;42627;42.646;23.642;2023-06-14T04:09:50;7.45;;;3.50;;
56752;SDS011;42627;42.646;23.642;2023-06-14T04:11:52;9.88;;;3.17;;
56752;SDS011;42627;42.646;23.642;2023-06-14T04:13:53;6.55;;;3.67;;
56752;SDS011;42627;42.646;23.642;2023-06-14T04:18:07;11.25;;;3.90;;
56752;SDS011;42627;42.646;23.642;2023-06-14T04:20:08;11.32;;;4.22;;
56752;SDS011;42627;42.646;23.642;2023-06-14T04:22:10;8.02;;;3.78;;
56752;SDS011;42627;42.646;23.642;2023-06-14T04:24:11;9.88;;;4.38;;
56752;SDS011;42627;42.646;23.642;2023-06-14T04:26:19;8.27;;;4.70;;
56752;SDS011;42627;42.646;23.642;2023-06-14T04:28:48;8.07;;;4.50;;
56752;SDS011;42627;42.646;23.642;2023-06-14T04:30:50;8.90;;;4.50;;
56752;SDS011;42627;42.646;23.642;2023-06-14T04:32:53;10.20;;;4.53;;
56752;SDS011;42627;42.646;23.642;2023-06-14T04:34:55;10.20;;;5.72;;
56752;SDS011;42627;42.646;23.642;2023-06-14T04:36:57;8.68;;;4.38;;
56752;SDS011;42627;42.646;23.642;2023-06-14T04:39:00;13.45;;;5.00;;
56752;SDS011;42627;42.646;23.642;2023-06-14T04:41:03;12.43;;;5.05;;
56752;SDS011;42627;42.646;23.642;2023-06-14T04:43:04;10.02;;;4.97;;
56752;SDS011;42627;42.646;23.642;2023-06-14T04:45:06;8.95;;;4.32;;
56752;SDS011;42627;42.646;23.642;2023-06-14T04:47:09;10.38;;;4.55;;
56752;SDS011;42627;42.646;23.642;2023-06-14T04:49:12;11.48;;;5.30;;
56752;SDS011;42627;42.646;23.642;2023-06-14T04:51:15;9.18;;;5.13;;
56752;SDS011;42627;42.646;23.642;2023-06-14T04:53:16;10.85;;;5.68;;
56752;SDS011;42627;42.646;23.642;2023-06-14T04:55:20;13.00;;;4.97;;
56752;SDS011;42627;42.646;23.642;2023-06-14T04:57:21;9.50;;;4.90;;
56752;SDS011;42627;42.646;23.642;2023-06-14T04:59:22;11.02;;;5.22;;
56752;SDS011;42627;42.646;23.642;2023-06-14T05:01:23;8.57;;;4.68;;
56752;SDS011;42627;42.646;23.642;2023-06-14T05:03:25;8.93;;;5.25;;
56752;SDS011;42627;42.646;23.642;2023-06-14T05:05:27;9.85;;;5.30;;
56752;SDS011;42627;42.646;23.642;2023-06-14T05:07:28;8.43;;;4.38;;
56752;SDS011;42627;42.646;23.642;2023-06-14T05:09:29;10.38;;;4.75;;
56752;SDS011;42627;42.646;23.642;2023-06-14T05:11:30;11.52;;;5.05;;
56752;SDS011;42627;42.646;23.642;2023-06-14T05:13:31;9.13;;;5.03;;
56752;SDS011;42627;42.646;23.642;2023-06-14T05:15:32;8.30;;;4.28;;
56752;SDS011;42627;42.646;23.642;2023-06-14T05:17:34;9.15;;;4.78;;
56752;SDS011;42627;42.646;23.642;2023-06-14T05:19:36;8.60;;;4.07;;
56752;SDS011;42627;42.646;23.642;2023-06-14T05:21:37;6.53;;;3.72;;
56752;SDS011;42627;42.646;23.642;2023-06-14T05:23:38;7.47;;;4.35;;
56752;SDS011;42627;42.646;23.642;2023-06-14T05:25:39;8.18;;;3.83;;
56752;SDS011;42627;42.646;23.642;2023-06-14T05:27:40;7.47;;;3.92;;
56752;SDS011;42627;42.646;23.642;2023-06-14T05:29:41;8.77;;;4.40;;
56752;SDS011;42627;42.646;23.642;2023-06-14T05:31:42;11.40;;;5.07;;
56752;SDS011;42627;42.646;23.642;2023-06-14T05:33:44;7.70;;;4.07;;
56752;SDS011;42627;42.646;23.642;2023-06-14T05:35:45;9.32;;;4.50;;
56752;SDS011;42627;42.646;23.642;2023-06-14T05:37:46;10.52;;;4.55;;
56752;SDS011;42627;42.646;23.642;2023-06-14T05:39:48;9.23;;;4.55;;
56752;SDS011;42627;42.646;23.642;2023-06-14T05:41:49;11.48;;;5.18;;
56752;SDS011;42627;42.646;23.642;2023-06-14T05:43:50;10.40;;;4.53;;
56752;SDS011;42627;42.646;23.642;2023-06-14T05:45:51;12.88;;;5.10;;
56752;SDS011;42627;42.646;23.642;2023-06-14T05:47:52;10.27;;;5.40;;
56752;SDS011;42627;42.646;23.642;2023-06-14T05:49:54;10.35;;;5.53;;
56752;SDS011;42627;42.646;23.642;2023-06-14T05:51:55;11.15;;;5.25;;
56752;SDS011;42627;42.646;23.642;2023-06-14T05:53:56;13.02;;;6.03;;
56752;SDS011;42627;42.646;23.642;2023-06-14T05:55:57;8.80;;;5.18;;
56752;SDS011;42627;42.646;23.642;2023-06-14T05:57:58;9.30;;;5.30;;
56752;SDS011;42627;42.646;23.642;2023-06-14T05:59:59;12.77;;;6.25;;
56752;SDS011;42627;42.646;23.642;2023-06-14T06:02:00;12.25;;;5.28;;
56752;SDS011;42627;42.646;23.642;2023-06-14T06:04:02;16.33;;;6.57;;
56752;SDS011;42627;42.646;23.642;2023-06-14T06:06:03;16.50;;;7.05;;
56752;SDS011;42627;42.646;23.642;2023-06-14T06:08:04;12.25;;;6.32;;
56752;SDS011;42627;42.646;23.642;2023-06-14T06:10:05;14.10;;;6.90;;
56752;SDS011;42627;42.646;23.642;2023-06-14T06:12:06;14.98;;;6.97;;
56752;SDS011;42627;42.646;23.642;2023-06-14T06:14:08;15.93;;;6.72;;
56752;SDS011;42627;42.646;23.642;2023-06-14T06:16:09;13.30;;;6.40;;
56752;SDS011;42627;42.646;23.642;2023-06-14T06:18:10;13.25;;;5.95;;
56752;SDS011;42627;42.646;23.642;2023-06-14T06:20:11;15.98;;;7.05;;
56752;SDS011;42627;42.646;23.642;2023-06-14T06:22:12;15.45;;;6.60;;
56752;SDS011;42627;42.646;23.642;2023-06-14T06:24:13;19.20;;;8.43;;
56752;SDS011;42627;42.646;23.642;2023-06-14T06:26:14;16.90;;;7.50;;
56752;SDS011;42627;42.646;23.642;2023-06-14T06:28:15;15.93;;;8.32;;
56752;SDS011;42627;42.646;23.642;2023-06-14T06:30:16;17.23;;;8.15;;
56752;SDS011;42627;42.646;23.642;2023-06-14T06:32:17;19.23;;;8.32;;
56752;SDS011;42627;42.646;23.642;2023-06-14T06:34:18;17.35;;;8.30;;
56752;SDS011;42627;42.646;23.642;2023-06-14T06:36:19;14.10;;;7.72;;
56752;SDS011;42627;42.646;23.642;2023-06-14T06:38:21;16.38;;;8.10;;
56752;SDS011;42627;42.646;23.642;2023-06-14T06:40:22;16.10;;;7.68;;
56752;SDS011;42627;42.646;23.642;2023-06-14T06:42:23;16.77;;;7.78;;
56752;SDS011;42627;42.646;23.642;2023-06-14T06:44:24;13.68;;;7.20;;
56752;SDS011;42627;42.646;23.642;2023-06-14T06:46:25;15.27;;;8.23;;
56752;SDS011;42627;42.646;23.642;2023-06-14T06:48:26;17.88;;;7.80;;
56752;SDS011;42627;42.646;23.642;2023-06-14T06:50:28;15.65;;;7.35;;
56752;SDS011;42627;42.646;23.642;2023-06-14T06:52:30;12.07;;;6.53;;
56752;SDS011;42627;42.646;23.642;2023-06-14T06:54:31;13.73;;;6.82;;
56752;SDS011;42627;42.646;23.642;2023-06-14T06:56:32;13.85;;;7.20;;
56752;SDS011;42627;42.646;23.642;2023-06-14T06:58:33;13.85;;;6.18;;
56752;SDS011;42627;42.646;23.642;2023-06-14T07:00:34;12.88;;;6.55;;
56752;SDS011;42627;42.646;23.642;2023-06-14T07:02:36;11.05;;;6.00;;
56752;SDS011;42627;42.646;23.642;2023-06-14T07:04:37;14.23;;;7.30;;
56752;SDS011;42627;42.646;23.642;2023-06-14T07:06:38;12.15;;;6.25;;
56752;SDS011;42627;42.646;23.642;2023-06-14T07:08:39;12.73;;;6.50;;
56752;SDS011;42627;42.646;23.642;2023-06-14T07:10:40;13.23;;;6.72;;
56752;SDS011;42627;42.646;23.642;2023-06-14T07:12:41;13.07;;;6.43;;
56752;SDS011;42627;42.646;23.642;2023-06-14T07:14:42;12.68;;;6.40;;
56752;SDS011;42627;42.646;23.642;2023-06-14T07:16:43;13.23;;;6.15;;
56752;SDS011;42627;42.646;23.642;2023-06-14T07:18:44;12.98;;;6.22;;
56752;SDS011;42627;42.646;23.642;2023-06-14T07:20:45;12.82;;;5.95;;
56752;SDS011;42627;42.646;23.642;2023-06-14T07:22:47;18.23;;;7.50;;
56752;SDS011;42627;42.646;23.642;2023-06-14T07:24:48;14.23;;;7.40;;
56752;SDS011;42627;42.646;23.642;2023-06-14T07:26:49;11.13;;;6.82;;
56752;SDS011;42627;42.646;23.642;2023-06-14T07:28:51;13.63;;;7.07;;
56752;SDS011;42627;42.646;23.642;2023-06-14T07:30:52;13.32;;;7.32;;
56752;SDS011;42627;42.646;23.642;2023-06-14T07:32:53;14.85;;;7.07;;
56752;SDS011;42627;42.646;23.642;2023-06-14T07:34:54;13.63;;;6.80;;
56752;SDS011;42627;42.646;23.642;2023-06-14T07:36:55;15.23;;;6.97;;
56752;SDS011;42627;42.646;23.642;2023-06-14T07:38:56;13.82;;;7.72;;
56752;SDS011;42627;42.646;23.642;2023-06-14T07:40:57;14.80;;;7.78;;
56752;SDS011;42627;42.646;23.642;2023-06-14T07:42:58;14.52;;;7.22;;
56752;SDS011;42627;42.646;23.642;2023-06-14T07:44:59;16.27;;;7.93;;
56752;SDS011;42627;42.646;23.642;2023-06-14T07:47:00;13.45;;;7.55;;
56752;SDS011;42627;42.646;23.642;2023-06-14T07:49:01;14.43;;;7.53;;
56752;SDS011;42627;42.646;23.642;2023-06-14T07:51:02;13.85;;;7.22;;
56752;SDS011;42627;42.646;23.642;2023-06-14T07:53:04;12.95;;;6.30;;
56752;SDS011;42627;42.646;23.642;2023-06-14T07:55:05;12.75;;;6.82;;
56752;SDS011;42627;42.646;23.642;2023-06-14T07:57:06;14.32;;;7.55;;
56752;SDS011;42627;42.646;23.642;2023-06-14T07:59:07;13.77;;;6.53;;
56752;SDS011;42627;42.646;23.642;2023-06-14T08:01:08;11.43;;;5.97;;
56752;SDS011;42627;42.646;23.642;2023-06-14T08:03:10;15.48;;;6.45;;
56752;SDS011;42627;42.646;23.642;2023-06-14T08:05:11;11.48;;;6.10;;
56752;SDS011;42627;42.646;23.642;2023-06-14T08:07:12;11.48;;;5.63;;
56752;SDS011;42627;42.646;23.642;2023-06-14T08:09:14;11.00;;;6.68;;
56752;SDS011;42627;42.646;23.642;2023-06-14T08:11:15;11.85;;;6.40;;
56752;SDS011;42627;42.646;23.642;2023-06-14T08:13:16;12.90;;;6.47;;
56752;SDS011;42627;42.646;23.642;2023-06-14T08:15:17;10.23;;;5.68;;
56752;SDS011;42627;42.646;23.642;2023-06-14T08:17:18;10.18;;;5.97;;
56752;SDS011;42627;42.646;23.642;2023-06-14T08:19:19;10.75;;;5.50;;
56752;SDS011;42627;42.646;23.642;2023-06-14T08:21:20;9.57;;;5.30;;
56752;SDS011;42627;42.646;23.642;2023-06-14T08:23:21;10.40;;;4.80;;
56752;SDS011;42627;42.646;23.642;2023-06-14T08:25:22;13.13;;;6.32;;
56752;SDS011;42627;42.646;23.642;2023-06-14T08:27:23;11.60;;;6.10;;
56752;SDS011;42627;42.646;23.642;2023-06-14T08:29:25;9.23;;;5.07;;
56752;SDS011;42627;42.646;23.642;2023-06-14T08:31:29;8.18;;;4.45;;
56752;SDS011;42627;42.646;23.642;2023-06-14T08:33:31;8.70;;;4.95;;
56752;SDS011;42627;42.646;23.642;2023-06-14T08:35:35;8.40;;;5.22;;
56752;SDS011;42627;42.646;23.642;2023-06-14T08:37:38;9.25;;;4.93;;
56752;SDS011;42627;42.646;23.642;2023-06-14T08:39:40;7.68;;;3.70;;
56752;SDS011;42627;42.646;23.642;2023-06-14T08:41:42;8.43;;;4.63;;
56752;SDS011;42627;42.646;23.642;2023-06-14T08:43:47;9.02;;;4.47;;
56752;SDS011;42627;42.646;23.642;2023-06-14T08:45:48;8.77;;;4.88;;
56752;SDS011;42627;42.646;23.642;2023-06-14T08:47:50;9.93;;;4.53;;
56752;SDS011;42627;42.646;23.642;2023-06-14T08:49:59;8.63;;;4.68;;
56752;SDS011;42627;42.646;23.642;2023-06-14T08:52:00;7.78;;;4.57;;
56752;SDS011;42627;42.646;23.642;2023-06-14T08:54:02;7.80;;;4.50;;
56752;SDS011;42627;42.646;23.642;2023-06-14T08:56:04;8.82;;;4.63;;
56752;SDS011;42627;42.646;23.642;2023-06-14T08:58:07;10.52;;;4.68;;
56752;SDS011;42627;42.646;23.642;2023-06-14T09:00:09;7.95;;;4.75;;
56752;SDS011;42627;42.646;23.642;2023-06-14T09:02:12;6.60;;;3.80;;
56752;SDS011;42627;42.646;23.642;2023-06-14T09:04:14;7.60;;;4.50;;
56752;SDS011;42627;42.646;23.642;2023-06-14T09:06:15;8.10;;;4.15;;
56752;SDS011;42627;42.646;23.642;2023-06-14T09:08:18;7.65;;;4.95;;
56752;SDS011;42627;42.646;23.642;2023-06-14T09:10:22;9.18;;;4.82;;
56752;SDS011;42627;42.646;23.642;2023-06-14T09:12:23;7.97;;;4.40;;
56752;SDS011;42627;42.646;23.642;2023-06-14T09:14:24;8.52;;;3.95;;
56752;SDS011;42627;42.646;23.642;2023-06-14T09:16:25;8.82;;;4.20;;
56752;SDS011;42627;42.646;23.642;2023-06-14T09:18:41;6.60;;;4.15;;
56752;SDS011;42627;42.646;23.642;2023-06-14T09:20:44;8.73;;;4.20;;
56752;SDS011;42627;42.646;23.642;2023-06-14T09:22:47;6.07;;;3.55;;
56752;SDS011;42627;42.646;23.642;2023-06-14T09:24:48;7.30;;;4.43;;
56752;SDS011;42627;42.646;23.642;2023-06-14T09:26:50;6.30;;;3.70;;
56752;SDS011;42627;42.646;23.642;2023-06-14T09:28:51;5.47;;;3.80;;
56752;SDS011;42627;42.646;23.642;2023-06-14T09:30:52;5.32;;;3.10;;
56752;SDS011;42627;42.646;23.642;2023-06-14T09:32:54;6.85;;;3.60;;
56752;SDS011;42627;42.646;23.642;2023-06-14T09:34:56;9.38;;;3.80;;
56752;SDS011;42627;42.646;23.642;2023-06-14T09:36:57;6.47;;;3.85;;
56752;SDS011;42627;42.646;23.642;2023-06-14T09:38:59;5.80;;;3.50;;
56752;SDS011;42627;42.646;23.642;2023-06-14T09:41:00;6.70;;;3.38;;
56752;SDS011;42627;42.646;23.642;2023-06-14T09:43:05;9.70;;;3.97;;
56752;SDS011;42627;42.646;23.642;2023-06-14T09:45:10;6.47;;;3.70;;
56752;SDS011;42627;42.646;23.642;2023-06-14T09:47:12;6.82;;;3.75;;
56752;SDS011;42627;42.646;23.642;2023-06-14T09:49:13;8.05;;;3.90;;
56752;SDS011;42627;42.646;23.642;2023-06-14T09:51:14;9.00;;;4.40;;
56752;SDS011;42627;42.646;23.642;2023-06-14T09:53:16;8.52;;;4.00;;
56752;SDS011;42627;42.646;23.642;2023-06-14T09:55:20;8.05;;;4.00;;
56752;SDS011;42627;42.646;23.642;2023-06-14T09:57:22;7.78;;;3.78;;
56752;SDS011;42627;42.646;23.642;2023-06-14T09:59:25;6.72;;;3.60;;
56752;SDS011;42627;42.646;23.642;2023-06-14T10:01:30;5.97;;;3.47;;
56752;SDS011;42627;42.646;23.642;2023-06-14T10:03:31;6.43;;;4.10;;
56752;SDS011;42627;42.646;23.642;2023-06-14T10:05:32;6.80;;;3.42;;
56752;SDS011;42627;42.646;23.642;2023-06-14T10:07:38;5.50;;;3.38;;
56752;SDS011;42627;42.646;23.642;2023-06-14T10:09:40;9.00;;;3.83;;
56752;SDS011;42627;42.646;23.642;2023-06-14T10:11:45;6.32;;;3.47;;
56752;SDS011;42627;42.646;23.642;2023-06-14T10:13:46;7.75;;;4.03;;
56752;SDS011;42627;42.646;23.642;2023-06-14T10:17:53;7.90;;;4.15;;
56752;SDS011;42627;42.646;23.642;2023-06-14T10:20:06;6.13;;;3.40;;
56752;SDS011;42627;42.646;23.642;2023-06-14T10:22:17;7.37;;;3.80;;
56752;SDS011;42627;42.646;23.642;2023-06-14T10:24:19;6.28;;;3.63;;
56752;SDS011;42627;42.646;23.642;2023-06-14T10:26:21;6.72;;;3.88;;
56752;SDS011;42627;42.646;23.642;2023-06-14T10:28:22;5.93;;;3.03;;
56752;SDS011;42627;42.646;23.642;2023-06-14T10:30:25;7.68;;;3.90;;
56752;SDS011;42627;42.646;23.642;2023-06-14T10:32:26;6.72;;;3.67;;
56752;SDS011;42627;42.646;23.642;2023-06-14T10:34:30;6.43;;;3.45;;
56752;SDS011;42627;42.646;23.642;2023-06-14T10:36:32;6.60;;;3.75;;
56752;SDS011;42627;42.646;23.642;2023-06-14T10:38:36;6.90;;;4.07;;
56752;SDS011;42627;42.646;23.642;2023-06-14T10:40:39;7.10;;;4.18;;
56752;SDS011;42627;42.646;23.642;2023-06-14T10:42:41;7.53;;;4.18;;
56752;SDS011;42627;42.646;23.642;2023-06-14T10:44:53;8.13;;;3.88;;
56752;SDS011;42627;42.646;23.642;2023-06-14T10:47:01;6.80;;;3.70;;
56752;SDS011;42627;42.646;23.642;2023-06-14T10:49:02;5.40;;;3.17;;
56752;SDS011;42627;42.646;23.642;2023-06-14T10:51:06;7.25;;;3.28;;
56752;SDS011;42627;42.646;23.642;2023-06-14T10:53:23;5.72;;;3.17;;
56752;SDS011;42627;42.646;23.642;2023-06-14T10:55:24;6.63;;;3.47;;
56752;SDS011;42627;42.646;23.642;2023-06-14T10:57:25;7.18;;;3.65;;
56752;SDS011;42627;42.646;23.642;2023-06-14T10:59:28;6.40;;;3.20;;
56752;SDS011;42627;42.646;23.642;2023-06-14T11:05:54;5.70;;;2.90;;
56752;SDS011;42627;42.646;23.642;2023-06-14T11:10:43;6.40;;;3.75;;
56752;SDS011;42627;42.646;23.642;2023-06-14T11:12:46;6.40;;;3.63;;
56752;SDS011;42627;42.646;23.642;2023-06-14T11:14:48;6.65;;;3.22;;
56752;SDS011;42627;42.646;23.642;2023-06-14T11:16:50;7.13;;;3.72;;
56752;SDS011;42627;42.646;23.642;2023-06-14T11:18:51;5.57;;;3.40;;
56752;SDS011;42627;42.646;23.642;2023-06-14T11:20:52;5.70;;;3.33;;
56752;SDS011;42627;42.646;23.642;2023-06-14T11:22:58;5.60;;;3.40;;
56752;SDS011;42627;42.646;23.642;2023-06-14T11:25:12;7.70;;;3.70;;
56752;SDS011;42627;42.646;23.642;2023-06-14T11:27:26;6.72;;;3.38;;
56752;SDS011;42627;42.646;23.642;2023-06-14T11:29:28;6.47;;;3.35;;
56752;SDS011;42627;42.646;23.642;2023-06-14T11:31:30;5.65;;;3.15;;
56752;SDS011;42627;42.646;23.642;2023-06-14T11:33:31;5.75;;;3.38;;
56752;SDS011;42627;42.646;23.642;2023-06-14T11:35:33;6.30;;;3.58;;
56752;SDS011;42627;42.646;23.642;2023-06-14T11:37:35;6.07;;;3.30;;
56752;SDS011;42627;42.646;23.642;2023-06-14T11:39:43;6.55;;;3.50;;
56752;SDS011;42627;42.646;23.642;2023-06-14T11:43:45;5.90;;;2.95;;
56752;SDS011;42627;42.646;23.642;2023-06-14T11:45:49;5.95;;;3.42;;
56752;SDS011;42627;42.646;23.642;2023-06-14T11:47:51;5.60;;;3.42;;
56752;SDS011;42627;42.646;23.642;2023-06-14T11:49:52;6.72;;;3.60;;
56752;SDS011;42627;42.646;23.642;2023-06-14T11:51:53;6.38;;;3.22;;
56752;SDS011;42627;42.646;23.642;2023-06-14T11:53:54;4.85;;;3.03;;
56752;SDS011;42627;42.646;23.642;2023-06-14T11:55:55;5.57;;;3.35;;
56752;SDS011;42627;42.646;23.642;2023-06-14T11:58:02;6.25;;;3.47;;
56752;SDS011;42627;42.646;23.642;2023-06-14T12:00:04;5.75;;;3.42;;
56752;SDS011;42627;42.646;23.642;2023-06-14T12:02:07;9.37;;;3.87;;
56752;SDS011;42627;42.646;23.642;2023-06-14T12:04:10;6.10;;;3.45;;
56752;SDS011;42627;42.646;23.642;2023-06-14T12:06:12;6.32;;;3.55;;
56752;SDS011;42627;42.646;23.642;2023-06-14T12:11:22;5.40;;;3.22;;
56752;SDS011;42627;42.646;23.642;2023-06-14T12:13:24;6.93;;;3.17;;
56752;SDS011;42627;42.646;23.642;2023-06-14T12:15:27;5.30;;;3.33;;
56752;SDS011;42627;42.646;23.642;2023-06-14T12:17:31;5.50;;;3.03;;
56752;SDS011;42627;42.646;23.642;2023-06-14T12:19:32;5.60;;;3.10;;
56752;SDS011;42627;42.646;23.642;2023-06-14T12:21:33;5.57;;;2.72;;
56752;SDS011;42627;42.646;23.642;2023-06-14T12:23:39;7.28;;;3.70;;
56752;SDS011;42627;42.646;23.642;2023-06-14T12:27:47;6.95;;;3.40;;
56752;SDS011;42627;42.646;23.642;2023-06-14T12:29:58;6.90;;;3.63;;
56752;SDS011;42627;42.646;23.642;2023-06-14T12:31:59;5.38;;;3.40;;
56752;SDS011;42627;42.646;23.642;2023-06-14T12:34:00;5.25;;;2.90;;
56752;SDS011;42627;42.646;23.642;2023-06-14T12:36:19;6.85;;;3.30;;
56752;SDS011;42627;42.646;23.642;2023-06-14T12:41:04;6.25;;;3.53;;
56752;SDS011;42627;42.646;23.642;2023-06-14T12:43:05;8.60;;;3.95;;
56752;SDS011;42627;42.646;23.642;2023-06-14T12:45:06;6.97;;;3.95;;
56752;SDS011;42627;42.646;23.642;2023-06-14T12:47:08;6.80;;;3.85;;
56752;SDS011;42627;42.646;23.642;2023-06-14T12:49:09;5.93;;;3.58;;
56752;SDS011;42627;42.646;23.642;2023-06-14T12:51:11;6.47;;;3.60;;
56752;SDS011;42627;42.646;23.642;2023-06-14T12:53:12;6.57;;;3.70;;
56752;SDS011;42627;42.646;23.642;2023-06-14T12:55:13;7.13;;;4.20;;
56752;SDS011;42627;42.646;23.642;2023-06-14T12:57:14;6.60;;;3.58;;